createdAt,value
2022-11-23T00:00:34.124Z,981.8
2022-11-23T00:01:34.141Z,981.82
2022-11-23T00:02:34.222Z,981.82
2022-11-23T00:03:34.175Z,981.84
2022-11-23T00:04:34.192Z,981.88
2022-11-23T00:05:34.207Z,981.91
2022-11-23T00:06:34.228Z,981.89
2022-11-23T00:07:34.288Z,981.92
2022-11-23T00:08:34.259Z,981.93
2022-11-23T00:09:34.438Z,981.91
2022-11-23T00:10:34.292Z,981.88
2022-11-23T00:11:34.310Z,981.96
2022-11-23T00:12:34.328Z,981.93
2022-11-23T00:13:34.465Z,981.87
2022-11-23T00:14:34.359Z,981.91
2022-11-23T00:15:34.379Z,981.98
2022-11-23T00:16:34.401Z,981.94
2022-11-23T00:17:34.415Z,981.93
2022-11-23T00:18:34.429Z,981.9
2022-11-23T00:19:34.620Z,981.88
2022-11-23T00:20:34.463Z,981.85
2022-11-23T00:21:34.481Z,981.9
2022-11-23T00:22:34.495Z,981.88
2022-11-23T00:23:34.514Z,981.91
2022-11-23T00:24:34.561Z,981.93
2022-11-23T00:25:34.548Z,981.92
2022-11-23T00:26:34.570Z,981.95
2022-11-23T00:27:34.583Z,981.95
2022-11-23T00:28:34.598Z,981.94
2022-11-23T00:29:34.641Z,981.95
2022-11-23T00:30:34.630Z,981.92
2022-11-23T00:31:34.651Z,981.99
2022-11-23T00:32:34.663Z,981.95
2022-11-23T00:33:34.685Z,981.93
2022-11-23T00:34:34.703Z,981.93
2022-11-23T00:35:34.717Z,981.95
2022-11-23T00:36:34.733Z,981.93
2022-11-23T00:37:34.770Z,981.96
2022-11-23T00:38:34.768Z,981.95
2022-11-23T00:39:34.782Z,981.94
2022-11-23T00:40:34.800Z,981.94
2022-11-23T00:41:34.818Z,981.92
2022-11-23T00:42:37.940Z,981.91
2022-11-23T00:43:34.858Z,981.94
2022-11-23T00:44:34.868Z,981.97
2022-11-23T00:45:34.932Z,981.92
2022-11-23T00:46:34.902Z,981.92
2022-11-23T00:47:34.910Z,981.89
2022-11-23T00:48:34.937Z,981.89
2022-11-23T00:49:34.955Z,981.88
2022-11-23T00:50:34.972Z,981.92
2022-11-23T00:51:34.987Z,981.91
2022-11-23T00:52:35.102Z,981.9
2022-11-23T00:53:35.021Z,981.88
2022-11-23T00:54:35.037Z,981.9
2022-11-23T00:55:35.058Z,981.89
2022-11-23T00:56:35.070Z,981.91
2022-11-23T00:57:35.088Z,981.89
2022-11-23T00:58:35.102Z,981.89
2022-11-23T00:59:35.124Z,981.88
2022-11-23T01:00:35.136Z,981.85
2022-11-23T01:01:35.224Z,981.89
2022-11-23T01:02:35.172Z,981.9
2022-11-23T01:03:35.188Z,981.93
2022-11-23T01:04:35.204Z,981.91
2022-11-23T01:05:35.218Z,981.95
2022-11-23T01:06:35.237Z,981.93
2022-11-23T01:07:35.276Z,981.93
2022-11-23T01:08:35.273Z,981.92
2022-11-23T01:09:35.294Z,981.93
2022-11-23T01:10:35.304Z,981.97
2022-11-23T01:11:35.319Z,981.98
2022-11-23T01:12:35.340Z,981.94
2022-11-23T01:13:35.351Z,981.99
2022-11-23T01:14:35.389Z,981.96
2022-11-23T01:15:35.389Z,981.97
2022-11-23T01:16:35.406Z,981.99
2022-11-23T01:17:35.443Z,981.97
2022-11-23T01:18:35.586Z,982
2022-11-23T01:19:35.452Z,981.93
2022-11-23T01:20:35.475Z,981.95
2022-11-23T01:21:35.488Z,981.97
2022-11-23T01:22:35.504Z,981.98
2022-11-23T01:23:35.520Z,981.99
2022-11-23T01:24:35.538Z,981.98
2022-11-23T01:25:35.557Z,981.98
2022-11-23T01:26:35.574Z,981.96
2022-11-23T01:27:35.589Z,981.96
2022-11-23T01:28:35.608Z,982.01
2022-11-23T01:29:35.720Z,981.96
2022-11-23T01:30:35.639Z,981.98
2022-11-23T01:31:35.655Z,981.99
2022-11-23T01:32:35.671Z,981.99
2022-11-23T01:33:35.713Z,982.02
2022-11-23T01:34:35.708Z,982.09
2022-11-23T01:35:35.723Z,982.05
2022-11-23T01:36:35.740Z,982.08
2022-11-23T01:37:35.757Z,982.07
2022-11-23T01:38:35.774Z,982.1
2022-11-23T01:39:35.788Z,982.13
2022-11-23T01:40:35.806Z,982.13
2022-11-23T01:41:35.826Z,982.09
2022-11-23T01:42:35.842Z,982.15
2022-11-23T01:43:35.856Z,982.13
2022-11-23T01:44:35.874Z,982.16
2022-11-23T01:45:35.887Z,982.11
2022-11-23T01:46:35.907Z,982.13
2022-11-23T01:47:35.924Z,982.14
2022-11-23T01:48:35.939Z,982.18
2022-11-23T01:49:35.981Z,982.21
2022-11-23T01:50:35.972Z,982.16
2022-11-23T01:51:35.992Z,982.19
2022-11-23T01:52:36.058Z,982.18
2022-11-23T01:53:36.023Z,982.19
2022-11-23T01:54:36.037Z,982.18
2022-11-23T01:55:36.057Z,982.15
2022-11-23T01:56:36.073Z,982.2
2022-11-23T01:57:36.089Z,982.25
2022-11-23T01:58:36.106Z,982.21
2022-11-23T01:59:36.124Z,982.2
2022-11-23T02:00:36.136Z,982.21
2022-11-23T02:01:36.199Z,982.21
2022-11-23T02:02:36.171Z,982.13
2022-11-23T02:03:36.187Z,982.14
2022-11-23T02:04:36.204Z,982.2
2022-11-23T02:05:36.346Z,982.22
2022-11-23T02:06:36.238Z,982.19
2022-11-23T02:07:36.296Z,982.17
2022-11-23T02:08:36.272Z,982.19
2022-11-23T02:09:36.289Z,982.15
2022-11-23T02:10:36.311Z,982.15
2022-11-23T02:11:36.322Z,982.15
2022-11-23T02:12:36.386Z,982.2
2022-11-23T02:13:36.357Z,982.2
2022-11-23T02:14:36.372Z,982.19
2022-11-23T02:15:36.391Z,982.17
2022-11-23T02:16:36.406Z,982.24
2022-11-23T02:17:36.424Z,982.19
2022-11-23T02:18:36.439Z,982.23
2022-11-23T02:19:36.453Z,982.18
2022-11-23T02:20:36.472Z,982.22
2022-11-23T02:21:36.513Z,982.18
2022-11-23T02:22:36.500Z,982.18
2022-11-23T02:23:36.522Z,982.22
2022-11-23T02:24:36.539Z,982.22
2022-11-23T02:25:36.555Z,982.22
2022-11-23T02:26:36.570Z,982.26
2022-11-23T02:27:36.587Z,982.26
2022-11-23T02:28:36.605Z,982.28
2022-11-23T02:29:36.621Z,982.26
2022-11-23T02:30:36.639Z,982.25
2022-11-23T02:31:36.655Z,982.23
2022-11-23T02:32:36.676Z,982.3
2022-11-23T02:33:36.688Z,982.25
2022-11-23T02:34:36.705Z,982.29
2022-11-23T02:35:36.720Z,982.23
2022-11-23T02:36:36.736Z,982.2
2022-11-23T02:37:36.775Z,982.22
2022-11-23T02:38:36.768Z,982.2
2022-11-23T02:39:36.791Z,982.19
2022-11-23T02:40:36.802Z,982.23
2022-11-23T02:41:36.817Z,982.21
2022-11-23T02:42:36.836Z,982.24
2022-11-23T02:43:36.851Z,982.25
2022-11-23T02:44:36.868Z,982.2
2022-11-23T02:45:36.884Z,982.2
2022-11-23T02:46:36.906Z,982.23
2022-11-23T02:47:36.926Z,982.25
2022-11-23T02:48:36.936Z,982.27
2022-11-23T02:49:36.951Z,982.24
2022-11-23T02:50:36.968Z,982.22
2022-11-23T02:51:36.983Z,982.26
2022-11-23T02:52:37.201Z,982.25
2022-11-23T02:53:37.042Z,982.22
2022-11-23T02:54:37.035Z,982.23
2022-11-23T02:55:37.049Z,982.27
2022-11-23T02:56:37.072Z,982.3
2022-11-23T02:57:37.083Z,982.3
2022-11-23T02:58:37.101Z,982.31
2022-11-23T02:59:37.124Z,982.3
2022-11-23T03:00:37.202Z,982.27
2022-11-23T03:01:37.148Z,982.34
2022-11-23T03:02:37.168Z,982.33
2022-11-23T03:03:37.183Z,982.35
2022-11-23T03:04:37.200Z,982.32
2022-11-23T03:05:37.216Z,982.25
2022-11-23T03:06:37.233Z,982.25
2022-11-23T03:07:37.271Z,982.25
2022-11-23T03:08:37.271Z,982.27
2022-11-23T03:09:37.306Z,982.27
2022-11-23T03:10:37.303Z,982.28
2022-11-23T03:11:37.315Z,982.26
2022-11-23T03:12:37.331Z,982.23
2022-11-23T03:13:37.348Z,982.24
2022-11-23T03:14:37.367Z,982.2
2022-11-23T03:15:37.383Z,982.22
2022-11-23T03:16:37.402Z,982.23
2022-11-23T03:17:37.413Z,982.24
2022-11-23T03:18:37.431Z,982.27
2022-11-23T03:19:37.449Z,982.27
2022-11-23T03:20:37.464Z,982.25
2022-11-23T03:21:37.479Z,982.28
2022-11-23T03:22:37.503Z,982.3
2022-11-23T03:23:37.515Z,982.29
2022-11-23T03:24:37.530Z,982.27
2022-11-23T03:25:37.572Z,982.27
2022-11-23T03:26:37.563Z,982.26
2022-11-23T03:27:37.584Z,982.23
2022-11-23T03:28:37.599Z,982.27
2022-11-23T03:29:37.668Z,982.29
2022-11-23T03:30:37.637Z,982.28
2022-11-23T03:31:37.645Z,982.3
2022-11-23T03:32:37.661Z,982.27
2022-11-23T03:33:37.680Z,982.3
2022-11-23T03:34:37.718Z,982.25
2022-11-23T03:35:37.713Z,982.23
2022-11-23T03:36:37.726Z,982.28
2022-11-23T03:37:37.748Z,982.28
2022-11-23T03:38:37.758Z,982.25
2022-11-23T03:39:38.566Z,982.26
2022-11-23T03:40:37.794Z,982.32
2022-11-23T03:41:37.835Z,982.28
2022-11-23T03:42:37.825Z,982.27
2022-11-23T03:43:37.846Z,982.25
2022-11-23T03:44:37.857Z,982.26
2022-11-23T03:45:37.875Z,982.28
2022-11-23T03:46:37.890Z,982.28
2022-11-23T03:47:37.909Z,982.3
2022-11-23T03:48:37.926Z,982.27
2022-11-23T03:49:37.941Z,982.28
2022-11-23T03:50:37.954Z,982.26
2022-11-23T03:51:37.972Z,982.24
2022-11-23T03:52:38.250Z,982.26
2022-11-23T03:53:38.008Z,982.27
2022-11-23T03:54:38.022Z,982.28
2022-11-23T03:55:38.044Z,982.24
2022-11-23T03:56:38.055Z,982.23
2022-11-23T03:57:38.096Z,982.21
2022-11-23T03:58:38.089Z,982.19
2022-11-23T03:59:38.104Z,982.22
2022-11-23T04:00:38.165Z,982.22
2022-11-23T04:01:38.135Z,982.22
2022-11-23T04:02:38.155Z,982.28
2022-11-23T04:03:38.173Z,982.26
2022-11-23T04:04:38.184Z,982.31
2022-11-23T04:05:38.202Z,982.28
2022-11-23T04:06:38.220Z,982.24
2022-11-23T04:07:38.261Z,982.21
2022-11-23T04:08:38.259Z,982.24
2022-11-23T04:09:38.270Z,982.25
2022-11-23T04:10:38.284Z,982.29
2022-11-23T04:11:38.300Z,982.26
2022-11-23T04:12:38.314Z,982.27
2022-11-23T04:13:38.358Z,982.29
2022-11-23T04:14:38.353Z,982.27
2022-11-23T04:15:38.369Z,982.27
2022-11-23T04:16:38.382Z,982.25
2022-11-23T04:17:38.404Z,982.27
2022-11-23T04:18:38.413Z,982.29
2022-11-23T04:19:38.434Z,982.25
2022-11-23T04:20:38.597Z,982.25
2022-11-23T04:21:38.468Z,982.29
2022-11-23T04:22:38.482Z,982.33
2022-11-23T04:23:38.498Z,982.31
2022-11-23T04:24:38.513Z,982.34
2022-11-23T04:25:38.534Z,982.3
2022-11-23T04:26:38.549Z,982.3
2022-11-23T04:27:38.561Z,982.34
2022-11-23T04:28:38.581Z,982.34
2022-11-23T04:29:38.637Z,982.32
2022-11-23T04:30:38.613Z,982.28
2022-11-23T04:31:38.626Z,982.37
2022-11-23T04:32:38.648Z,982.35
2022-11-23T04:33:38.658Z,982.37
2022-11-23T04:34:38.678Z,982.35
2022-11-23T04:35:38.693Z,982.38
2022-11-23T04:36:38.709Z,982.39
2022-11-23T04:37:38.729Z,982.4
2022-11-23T04:38:38.746Z,982.42
2022-11-23T04:39:38.762Z,982.42
2022-11-23T04:40:38.777Z,982.41
2022-11-23T04:41:38.793Z,982.45
2022-11-23T04:42:38.810Z,982.44
2022-11-23T04:43:38.824Z,982.47
2022-11-23T04:44:38.841Z,982.48
2022-11-23T04:45:38.883Z,982.49
2022-11-23T04:46:38.874Z,982.47
2022-11-23T04:47:38.889Z,982.49
2022-11-23T04:48:38.907Z,982.47
2022-11-23T04:49:38.919Z,982.49
2022-11-23T04:50:40.718Z,982.41
2022-11-23T04:51:38.951Z,982.49
2022-11-23T04:52:39.270Z,982.52
2022-11-23T04:53:38.988Z,982.54
2022-11-23T04:54:39.007Z,982.48
2022-11-23T04:55:39.021Z,982.52
2022-11-23T04:56:39.038Z,982.54
2022-11-23T04:57:39.053Z,982.53
2022-11-23T04:58:39.068Z,982.53
2022-11-23T04:59:39.086Z,982.54
2022-11-23T05:00:39.106Z,982.56
2022-11-23T05:01:39.226Z,982.55
2022-11-23T05:02:39.132Z,982.55
2022-11-23T05:03:39.149Z,982.53
2022-11-23T05:04:39.167Z,982.56
2022-11-23T05:05:39.184Z,982.57
2022-11-23T05:06:39.201Z,982.57
2022-11-23T05:07:39.242Z,982.56
2022-11-23T05:08:39.235Z,982.53
2022-11-23T05:09:39.245Z,982.54
2022-11-23T05:10:39.270Z,982.56
2022-11-23T05:11:39.279Z,982.56
2022-11-23T05:12:39.296Z,982.57
2022-11-23T05:13:39.312Z,982.58
2022-11-23T05:14:39.332Z,982.61
2022-11-23T05:15:39.346Z,982.54
2022-11-23T05:16:39.360Z,982.6
2022-11-23T05:17:39.438Z,982.54
2022-11-23T05:18:39.394Z,982.55
2022-11-23T05:19:39.416Z,982.55
2022-11-23T05:20:39.425Z,982.58
2022-11-23T05:21:39.448Z,982.54
2022-11-23T05:22:39.461Z,982.55
2022-11-23T05:23:39.477Z,982.6
2022-11-23T05:24:39.488Z,982.63
2022-11-23T05:25:39.509Z,982.62
2022-11-23T05:26:39.523Z,982.63
2022-11-23T05:27:39.541Z,982.62
2022-11-23T05:28:41.084Z,982.59
2022-11-23T05:29:39.578Z,982.61
2022-11-23T05:30:39.597Z,982.62
2022-11-23T05:31:39.605Z,982.6
2022-11-23T05:32:39.621Z,982.64
2022-11-23T05:33:39.674Z,982.64
2022-11-23T05:34:39.661Z,982.68
2022-11-23T05:35:39.672Z,982.67
2022-11-23T05:36:42.336Z,982.65
2022-11-23T05:37:39.703Z,982.64
2022-11-23T05:38:39.718Z,982.6
2022-11-23T05:39:39.734Z,982.65
2022-11-23T05:40:39.752Z,982.65
2022-11-23T05:41:39.767Z,982.65
2022-11-23T05:42:39.780Z,982.67
2022-11-23T05:43:39.799Z,982.64
2022-11-23T05:44:39.814Z,982.65
2022-11-23T05:45:39.833Z,982.66
2022-11-23T05:46:39.848Z,982.68
2022-11-23T05:47:39.867Z,982.66
2022-11-23T05:48:39.881Z,982.65
2022-11-23T05:49:39.921Z,982.65
2022-11-23T05:50:39.911Z,982.68
2022-11-23T05:51:39.930Z,982.7
2022-11-23T05:52:40.246Z,982.73
2022-11-23T05:53:39.966Z,982.73
2022-11-23T05:54:39.977Z,982.73
2022-11-23T05:55:40.001Z,982.71
2022-11-23T05:56:40.513Z,982.73
2022-11-23T05:57:40.030Z,982.7
2022-11-23T05:58:40.043Z,982.71
2022-11-23T05:59:40.058Z,982.75
2022-11-23T06:00:40.072Z,982.77
2022-11-23T06:01:40.091Z,982.8
2022-11-23T06:02:41.326Z,982.79
2022-11-23T06:03:40.177Z,982.8
2022-11-23T06:04:40.135Z,982.8
2022-11-23T06:05:40.179Z,982.79
2022-11-23T06:06:40.174Z,982.78
2022-11-23T06:07:40.237Z,982.76
2022-11-23T06:08:40.205Z,982.76
2022-11-23T06:09:40.218Z,982.75
2022-11-23T06:10:40.236Z,982.76
2022-11-23T06:11:40.255Z,982.74
2022-11-23T06:12:40.273Z,982.69
2022-11-23T06:13:40.284Z,982.73
2022-11-23T06:14:40.302Z,982.72
2022-11-23T06:15:40.318Z,982.71
2022-11-23T06:16:40.339Z,982.7
2022-11-23T06:17:40.349Z,982.75
2022-11-23T06:18:40.371Z,982.75
2022-11-23T06:19:40.380Z,982.71
2022-11-23T06:20:40.398Z,982.74
2022-11-23T06:21:40.440Z,982.75
2022-11-23T06:22:40.438Z,982.71
2022-11-23T06:23:40.447Z,982.72
2022-11-23T06:24:40.467Z,982.7
2022-11-23T06:25:40.485Z,982.77
2022-11-23T06:26:40.499Z,982.76
2022-11-23T06:27:40.509Z,982.75
2022-11-23T06:28:40.530Z,982.81
2022-11-23T06:29:40.544Z,982.76
2022-11-23T06:30:40.563Z,982.79
2022-11-23T06:31:40.576Z,982.83
2022-11-23T06:32:40.593Z,982.82
2022-11-23T06:33:40.608Z,982.86
2022-11-23T06:34:40.625Z,982.87
2022-11-23T06:35:40.641Z,982.84
2022-11-23T06:36:40.657Z,982.87
2022-11-23T06:37:40.698Z,982.88
2022-11-23T06:38:40.690Z,982.85
2022-11-23T06:39:40.708Z,982.89
2022-11-23T06:40:40.725Z,982.93
2022-11-23T06:41:40.735Z,982.94
2022-11-23T06:42:40.774Z,982.96
2022-11-23T06:43:40.770Z,982.99
2022-11-23T06:44:40.790Z,982.99
2022-11-23T06:45:40.796Z,982.99
2022-11-23T06:46:40.823Z,982.98
2022-11-23T06:47:40.838Z,982.96
2022-11-23T06:48:40.852Z,982.95
2022-11-23T06:49:40.866Z,982.94
2022-11-23T06:50:40.885Z,982.97
2022-11-23T06:51:40.900Z,982.93
2022-11-23T06:52:40.966Z,982.93
2022-11-23T06:53:40.955Z,982.94
2022-11-23T06:54:40.950Z,982.92
2022-11-23T06:55:40.965Z,982.97
2022-11-23T06:56:40.979Z,982.99
2022-11-23T06:57:40.999Z,983
2022-11-23T06:58:41.015Z,983.03
2022-11-23T06:59:44.649Z,982.97
2022-11-23T07:00:41.043Z,983.01
2022-11-23T07:01:41.101Z,983.05
2022-11-23T07:02:41.078Z,983.02
2022-11-23T07:03:41.134Z,983.05
2022-11-23T07:04:41.109Z,983.06
2022-11-23T07:05:41.128Z,983.07
2022-11-23T07:06:41.142Z,983.07
2022-11-23T07:07:41.184Z,983.06
2022-11-23T07:08:41.173Z,983.1
2022-11-23T07:09:41.216Z,983.14
2022-11-23T07:10:41.204Z,983.15
2022-11-23T07:11:41.225Z,983.12
2022-11-23T07:12:41.245Z,983.13
2022-11-23T07:13:41.254Z,983.12
2022-11-23T07:14:41.267Z,983.15
2022-11-23T07:15:41.287Z,983.16
2022-11-23T07:16:41.305Z,983.15
2022-11-23T07:17:41.318Z,983.16
2022-11-23T07:18:41.337Z,983.19
2022-11-23T07:19:41.352Z,983.19
2022-11-23T07:20:41.370Z,983.17
2022-11-23T07:21:41.385Z,983.18
2022-11-23T07:22:41.399Z,983.18
2022-11-23T07:23:41.418Z,983.21
2022-11-23T07:24:45.367Z,983.19
2022-11-23T07:25:41.473Z,983.18
2022-11-23T07:26:41.463Z,983.17
2022-11-23T07:27:41.486Z,983.19
2022-11-23T07:28:41.498Z,983.22
2022-11-23T07:29:41.518Z,983.21
2022-11-23T07:30:41.527Z,983.24
2022-11-23T07:31:41.547Z,983.23
2022-11-23T07:32:41.559Z,983.21
2022-11-23T07:33:41.579Z,983.19
2022-11-23T07:34:41.595Z,983.19
2022-11-23T07:35:41.615Z,983.22
2022-11-23T07:36:41.629Z,983.22
2022-11-23T07:37:41.648Z,983.26
2022-11-23T07:38:41.660Z,983.3
2022-11-23T07:39:56.675Z,983.28
2022-11-23T07:40:41.694Z,983.32
2022-11-23T07:41:41.739Z,983.34
2022-11-23T07:42:44.992Z,983.32
2022-11-23T07:43:41.739Z,983.36
2022-11-23T07:44:41.757Z,983.42
2022-11-23T07:45:41.776Z,983.44
2022-11-23T07:46:41.788Z,983.45
2022-11-23T07:47:41.807Z,983.47
2022-11-23T07:48:41.826Z,983.46
2022-11-23T07:49:41.838Z,983.44
2022-11-23T07:50:41.857Z,983.42
2022-11-23T07:51:41.874Z,983.43
2022-11-23T07:52:42.086Z,983.4
2022-11-23T07:53:41.903Z,983.44
2022-11-23T07:54:41.921Z,983.43
2022-11-23T07:55:41.939Z,983.46
2022-11-23T07:56:41.955Z,983.49
2022-11-23T07:57:41.992Z,983.46
2022-11-23T07:58:41.985Z,983.47
2022-11-23T07:59:42.002Z,983.48
2022-11-23T08:00:42.017Z,983.51
2022-11-23T08:01:42.032Z,983.51
2022-11-23T08:02:53.001Z,983.51
2022-11-23T08:03:43.937Z,983.54
2022-11-23T08:04:43.930Z,983.55
2022-11-23T08:05:43.942Z,983.53
2022-11-23T08:06:43.961Z,983.49
2022-11-23T08:07:44.015Z,983.51
2022-11-23T08:08:43.992Z,983.52
2022-11-23T08:09:44.008Z,983.47
2022-11-23T08:10:47.281Z,983.49
2022-11-23T08:11:44.038Z,983.55
2022-11-23T08:12:44.082Z,983.57
2022-11-23T08:13:44.074Z,983.56
2022-11-23T08:14:44.092Z,983.54
2022-11-23T08:15:46.486Z,983.53
2022-11-23T08:16:44.124Z,983.52
2022-11-23T08:17:44.151Z,983.57
2022-11-23T08:18:44.157Z,983.57
2022-11-23T08:19:44.174Z,983.56
2022-11-23T08:20:44.190Z,983.59
2022-11-23T08:21:44.207Z,983.61
2022-11-23T08:22:44.223Z,983.62
2022-11-23T08:23:44.238Z,983.63
2022-11-23T08:24:44.258Z,983.58
2022-11-23T08:25:44.276Z,983.6
2022-11-23T08:26:44.285Z,983.57
2022-11-23T08:27:44.301Z,983.58
2022-11-23T08:28:44.350Z,983.6
2022-11-23T08:29:44.335Z,983.58
2022-11-23T08:30:44.353Z,983.58
2022-11-23T08:31:44.369Z,983.59
2022-11-23T08:32:44.390Z,983.62
2022-11-23T08:33:44.403Z,983.6
2022-11-23T08:34:44.420Z,983.57
2022-11-23T08:35:44.434Z,983.59
2022-11-23T08:36:44.458Z,983.61
2022-11-23T08:37:44.469Z,983.62
2022-11-23T08:38:44.488Z,983.62
2022-11-23T08:39:44.500Z,983.62
2022-11-23T08:40:44.520Z,983.65
2022-11-23T08:41:44.532Z,983.66
2022-11-23T08:42:44.549Z,983.64
2022-11-23T08:43:44.566Z,983.64
2022-11-23T08:44:44.603Z,983.66
2022-11-23T08:45:44.599Z,983.73
2022-11-23T08:46:44.612Z,983.67
2022-11-23T08:47:44.631Z,983.68
2022-11-23T08:48:44.646Z,983.71
2022-11-23T08:49:44.664Z,983.68
2022-11-23T08:50:44.681Z,983.7
2022-11-23T08:51:49.824Z,983.66
2022-11-23T08:52:44.764Z,983.67
2022-11-23T08:53:44.730Z,983.68
2022-11-23T08:54:44.748Z,983.67
2022-11-23T08:55:44.762Z,983.7
2022-11-23T08:56:44.780Z,983.69
2022-11-23T08:57:44.800Z,983.7
2022-11-23T08:58:44.812Z,983.69
2022-11-23T08:59:44.820Z,983.67
2022-11-23T09:00:44.874Z,983.71
2022-11-23T09:01:44.940Z,983.73
2022-11-23T09:02:44.877Z,983.73
2022-11-23T09:03:44.892Z,983.77
2022-11-23T09:04:44.913Z,983.8
2022-11-23T09:05:44.929Z,983.76
2022-11-23T09:06:44.943Z,983.75
2022-11-23T09:07:44.968Z,983.76
2022-11-23T09:08:44.976Z,983.78
2022-11-23T09:09:44.993Z,983.75
2022-11-23T09:10:45.008Z,983.81
2022-11-23T09:11:45.026Z,983.76
2022-11-23T09:12:45.042Z,983.77
2022-11-23T09:13:45.062Z,983.79
2022-11-23T09:14:45.074Z,983.74
2022-11-23T09:15:45.087Z,983.78
2022-11-23T09:16:45.131Z,983.77
2022-11-23T09:17:45.124Z,983.75
2022-11-23T09:18:45.136Z,983.78
2022-11-23T09:19:45.156Z,983.8
2022-11-23T09:20:45.173Z,983.77
2022-11-23T09:21:45.188Z,983.76
2022-11-23T09:22:45.205Z,983.76
2022-11-23T09:23:45.222Z,983.77
2022-11-23T09:24:45.302Z,983.79
2022-11-23T09:25:45.256Z,983.78
2022-11-23T09:26:45.275Z,983.81
2022-11-23T09:27:45.291Z,983.83
2022-11-23T09:28:45.304Z,983.83
2022-11-23T09:29:45.326Z,983.85
2022-11-23T09:30:45.338Z,983.84
2022-11-23T09:31:45.358Z,983.87
2022-11-23T09:32:45.397Z,983.85
2022-11-23T09:33:45.384Z,983.82
2022-11-23T09:34:45.401Z,983.85
2022-11-23T09:35:45.418Z,983.87
2022-11-23T09:36:45.436Z,983.85
2022-11-23T09:37:45.453Z,983.85
2022-11-23T09:38:55.993Z,983.87
2022-11-23T09:39:45.485Z,983.87
2022-11-23T09:40:45.500Z,983.9
2022-11-23T09:41:45.517Z,983.93
2022-11-23T09:42:45.539Z,983.94
2022-11-23T09:43:45.553Z,983.92
2022-11-23T09:44:45.569Z,983.94
2022-11-23T09:45:45.585Z,983.98
2022-11-23T09:46:45.599Z,983.94
2022-11-23T09:47:45.617Z,983.95
2022-11-23T09:48:45.660Z,983.98
2022-11-23T09:49:45.649Z,983.96
2022-11-23T09:50:45.670Z,983.96
2022-11-23T09:51:45.684Z,983.97
2022-11-23T09:52:45.903Z,984.02
2022-11-23T09:53:45.719Z,984.02
2022-11-23T09:54:45.734Z,984.02
2022-11-23T09:55:45.751Z,984
2022-11-23T09:56:45.768Z,984.04
2022-11-23T09:57:45.784Z,984.04
2022-11-23T09:58:45.803Z,984.01
2022-11-23T09:59:45.816Z,984.05
2022-11-23T10:00:45.833Z,984.06
2022-11-23T10:01:45.868Z,984.01
2022-11-23T10:02:45.867Z,984
2022-11-23T10:03:48.965Z,983.98
2022-11-23T10:04:45.927Z,984.01
2022-11-23T10:05:45.921Z,984.01
2022-11-23T10:06:45.936Z,983.94
2022-11-23T10:07:45.992Z,983.94
2022-11-23T10:08:45.969Z,983.92
2022-11-23T10:09:45.983Z,983.96
2022-11-23T10:10:46.002Z,983.93
2022-11-23T10:11:46.017Z,984.01
2022-11-23T10:12:46.047Z,983.98
2022-11-23T10:13:46.061Z,983.93
2022-11-23T10:14:46.072Z,983.96
2022-11-23T10:15:46.086Z,983.98
2022-11-23T10:16:46.104Z,983.95
2022-11-23T10:17:46.117Z,983.98
2022-11-23T10:18:46.140Z,983.96
2022-11-23T10:19:46.152Z,983.95
2022-11-23T10:20:46.195Z,984.02
2022-11-23T10:21:46.186Z,983.98
2022-11-23T10:22:46.200Z,983.99
2022-11-23T10:23:46.223Z,983.98
2022-11-23T10:24:46.233Z,983.99
2022-11-23T10:25:46.253Z,983.98
2022-11-23T10:26:46.264Z,983.96
2022-11-23T10:27:46.287Z,983.97
2022-11-23T10:28:46.299Z,983.99
2022-11-23T10:29:46.320Z,983.97
2022-11-23T10:30:46.384Z,983.94
2022-11-23T10:31:46.353Z,983.96
2022-11-23T10:32:46.369Z,983.9
2022-11-23T10:33:46.381Z,983.95
2022-11-23T10:34:46.403Z,983.9
2022-11-23T10:35:46.419Z,983.91
2022-11-23T10:36:46.463Z,983.92
2022-11-23T10:37:46.453Z,983.92
2022-11-23T10:38:46.470Z,983.91
2022-11-23T10:39:46.478Z,983.9
2022-11-23T10:40:46.505Z,983.92
2022-11-23T10:41:46.533Z,983.89
2022-11-23T10:42:46.545Z,983.85
2022-11-23T10:43:46.562Z,983.83
2022-11-23T10:44:46.566Z,983.86
2022-11-23T10:45:46.585Z,983.82
2022-11-23T10:46:46.599Z,983.86
2022-11-23T10:47:46.620Z,983.81
2022-11-23T10:48:46.634Z,983.84
2022-11-23T10:49:46.655Z,983.85
2022-11-23T10:50:46.670Z,983.79
2022-11-23T10:51:46.687Z,983.76
2022-11-23T10:52:47.079Z,983.72
2022-11-23T10:53:46.720Z,983.74
2022-11-23T10:54:46.734Z,983.73
2022-11-23T10:55:46.755Z,983.71
2022-11-23T10:56:46.767Z,983.66
2022-11-23T10:57:46.785Z,983.69
2022-11-23T10:58:46.800Z,983.7
2022-11-23T10:59:46.819Z,983.68
2022-11-23T11:00:46.837Z,983.67
2022-11-23T11:01:46.896Z,983.63
2022-11-23T11:02:46.859Z,983.67
2022-11-23T11:03:46.883Z,983.66
2022-11-23T11:04:46.904Z,983.65
2022-11-23T11:06:07.875Z,983.67
2022-11-23T11:06:46.939Z,983.67
2022-11-23T11:07:46.978Z,983.68
2022-11-23T11:08:46.994Z,983.67
2022-11-23T11:09:46.987Z,983.63
2022-11-23T11:10:47.003Z,983.61
2022-11-23T11:11:47.019Z,983.56
2022-11-23T11:12:47.034Z,983.59
2022-11-23T11:13:47.049Z,983.57
2022-11-23T11:14:47.221Z,983.52
2022-11-23T11:15:47.843Z,983.54
2022-11-23T11:16:47.751Z,983.58
2022-11-23T11:17:47.118Z,983.53
2022-11-23T11:18:47.140Z,983.56
2022-11-23T11:19:47.151Z,983.53
2022-11-23T11:20:47.171Z,983.54
2022-11-23T11:21:47.182Z,983.56
2022-11-23T11:22:47.960Z,983.56
2022-11-23T11:23:47.217Z,983.57
2022-11-23T11:24:47.259Z,983.57
2022-11-23T11:25:47.251Z,983.61
2022-11-23T11:26:47.264Z,983.53
2022-11-23T11:27:47.280Z,983.53
2022-11-23T11:28:47.303Z,983.55
2022-11-23T11:29:47.312Z,983.5
2022-11-23T11:30:47.331Z,983.53
2022-11-23T11:31:47.346Z,983.56
2022-11-23T11:32:47.359Z,983.48
2022-11-23T11:33:47.381Z,983.56
2022-11-23T11:34:47.401Z,983.54
2022-11-23T11:35:47.415Z,983.53
2022-11-23T11:36:47.431Z,983.51
2022-11-23T11:37:47.447Z,983.55
2022-11-23T11:39:01.581Z,983.51
2022-11-23T11:39:47.485Z,983.51
2022-11-23T11:40:47.532Z,983.54
2022-11-23T11:41:47.514Z,983.53
2022-11-23T11:42:47.527Z,983.59
2022-11-23T11:43:47.549Z,983.58
2022-11-23T11:44:47.566Z,983.59
2022-11-23T11:46:06.403Z,983.58
2022-11-23T11:46:47.595Z,983.57
2022-11-23T11:47:47.612Z,983.53
2022-11-23T11:48:47.635Z,983.5
2022-11-23T11:49:47.647Z,983.61
2022-11-23T11:50:47.665Z,983.57
2022-11-23T11:51:47.679Z,983.54
2022-11-23T11:52:47.897Z,983.54
2022-11-23T11:53:47.712Z,983.55
2022-11-23T11:54:47.729Z,983.55
2022-11-23T11:55:47.748Z,983.53
2022-11-23T11:56:47.844Z,983.56
2022-11-23T11:57:47.778Z,983.56
2022-11-23T11:58:47.810Z,983.56
2022-11-23T11:59:47.855Z,983.54
2022-11-23T12:00:47.825Z,983.52
2022-11-23T12:01:47.844Z,983.52
2022-11-23T12:02:47.899Z,983.54
2022-11-23T12:03:47.896Z,983.49
2022-11-23T12:04:47.895Z,983.51
2022-11-23T12:05:47.912Z,983.44
2022-11-23T12:06:47.927Z,983.5
2022-11-23T12:07:47.967Z,983.47
2022-11-23T12:08:47.961Z,983.49
2022-11-23T12:09:47.980Z,983.5
2022-11-23T12:10:47.995Z,983.52
2022-11-23T12:11:48.008Z,983.55
2022-11-23T12:12:48.056Z,983.57
2022-11-23T12:13:48.045Z,983.58
2022-11-23T12:14:48.059Z,983.58
2022-11-23T12:15:49.731Z,983.52
2022-11-23T12:16:59.450Z,983.55
2022-11-23T12:17:49.363Z,983.51
2022-11-23T12:18:49.375Z,983.53
2022-11-23T12:19:49.398Z,983.46
2022-11-23T12:20:49.411Z,983.46
2022-11-23T12:21:54.230Z,983.44
2022-11-23T12:22:49.446Z,983.46
2022-11-23T12:23:49.462Z,983.41
2022-11-23T12:24:49.481Z,983.43
2022-11-23T12:25:49.497Z,983.45
2022-11-23T12:26:49.512Z,983.46
2022-11-23T12:27:49.617Z,983.42
2022-11-23T12:28:49.545Z,983.39
2022-11-23T12:29:49.559Z,983.39
2022-11-23T12:30:49.577Z,983.4